Time;durP1;ratioP1;P1;durP2;ratioP2;P2;SDS_P1;SDS_P2;PMS_P1;PMS_P2;Temp;Humidity;BMP_temperature;BMP_pressure;BME280_temperature;BME280_humidity;BME280_pressure;Samples;Min_cycle;Max_cycle;Signal;HPM_P1;HPM_P2
2022/01/25 00:10:02;;;;;;;60.77;23.00;;;-0.80;99.90;;;;;;5049678;28;20032;-77
2022/01/25 00:26:25;;;;;;;85.53;20.90;;;-0.80;99.90;;;;;;5051042;28;20044;-78
2022/01/25 00:29:48;;;;;;;58.07;21.43;;;-0.80;99.90;;;;;;5050222;28;20025;-78
2022/01/25 00:31:38;;;;;;;73.23;21.03;;;-0.80;99.90;;;;;;5046606;28;20041;-78
2022/01/25 00:34:05;;;;;;;58.77;21.20;;;-0.80;99.90;;;;;;5050222;28;20104;-78
2022/01/25 00:36:31;;;;;;;82.50;20.90;;;-0.80;99.90;;;;;;5054692;28;20029;-78
2022/01/25 00:38:57;;;;;;;95.47;21.10;;;-0.80;99.90;;;;;;5053966;28;20082;-76
2022/01/25 00:41:24;;;;;;;194.73;21.93;;;-0.90;99.90;;;;;;5054164;28;20037;-76
2022/01/25 00:43:50;;;;;;;86.53;20.20;;;-0.90;99.90;;;;;;5053984;28;20037;-77
2022/01/25 00:46:19;;;;;;;74.63;21.40;;;-0.90;99.90;;;;;;5053471;28;20037;-76
2022/01/25 00:48:49;;;;;;;102.23;20.30;;;-0.90;99.90;;;;;;5053676;28;20017;-76
2022/01/25 00:54:48;;;;;;;72.20;19.10;;;-0.90;99.90;;;;;;5053542;28;20120;-77
2022/01/25 00:56:57;;;;;;;47.83;18.87;;;-0.90;99.90;;;;;;5042582;28;20079;-77
2022/01/25 00:59:29;;;;;;;58.63;18.13;;;-0.90;99.90;;;;;;5053366;28;20103;-77
2022/01/25 01:01:57;;;;;;;53.60;18.67;;;-0.90;99.90;;;;;;5053790;28;20040;-76
2022/01/25 01:04:23;;;;;;;42.90;17.37;;;-0.90;99.90;;;;;;5053258;28;20029;-76
2022/01/25 01:06:50;;;;;;;64.53;19.93;;;-0.90;99.90;;;;;;5053127;28;20108;-77
2022/01/25 01:09:18;;;;;;;40.80;17.70;;;-0.90;99.90;;;;;;5053210;28;20059;-77
2022/01/25 01:11:56;;;;;;;57.50;20.10;;;-0.90;99.90;;;;;;5053546;28;20021;-77
2022/01/25 01:31:00;;;;;;;59.17;18.37;;;-0.90;99.90;;;;;;5052565;28;20441;-77
2022/01/25 01:41:46;;;;;;;86.40;18.07;;;-0.90;99.90;;;;;;5041307;28;20095;-77
2022/01/25 01:44:23;;;;;;;50.27;18.17;;;-0.90;99.90;;;;;;5052742;28;20464;-77
2022/01/25 01:47:08;;;;;;;48.20;16.70;;;-0.90;99.90;;;;;;5051678;28;20040;-77
2022/01/25 01:49:41;;;;;;;61.88;15.30;;;-0.80;99.90;;;;;;5051043;28;20021;-77
2022/01/25 01:52:07;;;;;;;33.87;16.20;;;-0.70;99.90;;;;;;5052828;28;20358;-77
2022/01/25 01:54:33;;;;;;;41.17;16.33;;;-0.70;99.90;;;;;;5052429;28;20463;-77
2022/01/25 01:56:59;;;;;;;48.13;19.10;;;-0.80;99.90;;;;;;5052973;28;20041;-76
2022/01/25 01:59:25;;;;;;;64.27;17.90;;;-0.80;99.90;;;;;;5052033;28;20044;-76
2022/01/25 02:01:50;;;;;;;51.83;16.13;;;-0.70;99.90;;;;;;5052746;28;20043;-77
2022/01/25 02:04:17;;;;;;;37.50;15.40;;;-0.70;99.90;;;;;;5052527;28;20025;-77
2022/01/25 02:06:43;;;;;;;43.37;16.00;;;-0.80;99.90;;;;;;5053121;28;20035;-77
2022/01/25 02:09:10;;;;;;;33.40;16.00;;;-0.60;99.90;;;;;;5052240;28;20653;-77
2022/01/25 02:11:36;;;;;;;31.47;16.10;;;-0.60;99.90;;;;;;5050918;28;20033;-76
2022/01/25 02:14:06;;;;;;;63.57;15.87;;;-0.50;99.90;;;;;;5052184;28;20482;-78
2022/01/25 02:16:59;;;;;;;34.83;16.50;;;-0.40;99.90;;;;;;5052544;28;20430;-77
2022/01/25 02:24:54;;;;;;;31.73;14.77;;;-0.40;99.90;;;;;;5051562;28;20032;-77
2022/01/25 02:27:20;;;;;;;35.10;15.63;;;-0.50;99.90;;;;;;5052020;28;20436;-77
2022/01/25 02:29:46;;;;;;;32.40;14.93;;;-0.50;99.90;;;;;;5051853;28;20017;-76
2022/01/25 02:32:13;;;;;;;28.87;13.83;;;-0.50;99.90;;;;;;5052225;28;20048;-76
2022/01/25 02:34:39;;;;;;;35.03;15.23;;;-0.50;99.90;;;;;;5051947;28;20025;-77
2022/01/25 02:37:11;;;;;;;37.30;14.20;;;-0.60;99.90;;;;;;5052129;28;20061;-77
2022/01/25 02:39:38;;;;;;;44.63;17.30;;;-0.60;99.90;;;;;;5051110;28;20064;-77
2022/01/25 02:42:07;;;;;;;52.90;16.53;;;-0.60;99.90;;;;;;5051937;28;20021;-77
2022/01/25 02:44:34;;;;;;;36.07;17.60;;;-0.70;99.90;;;;;;5050081;28;20500;-77
2022/01/25 02:49:31;;;;;;;52.03;18.90;;;-0.60;99.90;;;;;;5051460;28;20035;-77
2022/01/25 02:51:57;;;;;;;63.23;17.50;;;-0.70;99.90;;;;;;5032164;28;20033;-76
2022/01/25 02:54:23;;;;;;;46.57;17.80;;;-0.70;99.90;;;;;;5031574;28;20037;-77
2022/01/25 02:56:49;;;;;;;45.93;19.20;;;-0.80;99.90;;;;;;5031934;28;20091;-78
2022/01/25 02:59:17;;;;;;;46.87;18.30;;;-0.70;99.90;;;;;;5031325;28;20025;-77
2022/01/25 03:01:45;;;;;;;43.47;17.13;;;-0.80;99.90;;;;;;5049587;28;20068;-77
2022/01/25 03:04:14;;;;;;;44.33;16.47;;;-0.80;99.90;;;;;;5033266;28;20079;-77
2022/01/25 03:06:42;;;;;;;44.27;18.03;;;-0.80;99.90;;;;;;5031242;28;20025;-78
2022/01/25 03:09:07;;;;;;;54.53;17.30;;;-0.70;99.90;;;;;;5031167;28;20017;-76
2022/01/25 03:11:33;;;;;;;46.87;18.27;;;-0.70;99.90;;;;;;5049585;28;20485;-76
2022/01/25 03:14:02;;;;;;;48.70;15.80;;;-0.70;99.90;;;;;;5051067;28;20029;-77
2022/01/25 03:16:47;;;;;;;42.83;17.17;;;-0.80;99.90;;;;;;5050598;28;20025;-77
2022/01/25 03:22:18;;;;;;;57.40;15.40;;;-0.80;99.90;;;;;;5050690;28;20032;-77
2022/01/25 03:24:44;;;;;;;43.97;17.13;;;-0.80;99.90;;;;;;5050267;28;20025;-77
2022/01/25 03:27:10;;;;;;;47.57;16.50;;;-0.70;99.90;;;;;;5050707;28;20104;-76
2022/01/25 03:29:36;;;;;;;47.60;17.13;;;-0.80;99.90;;;;;;5050241;28;20107;-76
2022/01/25 03:32:02;;;;;;;45.30;17.17;;;-0.80;99.90;;;;;;5050644;28;20029;-77
2022/01/25 03:34:27;;;;;;;42.13;17.30;;;-0.80;99.90;;;;;;5050348;28;20029;-77
2022/01/25 03:36:53;;;;;;;45.23;16.37;;;-0.80;99.90;;;;;;5050467;28;20033;-77
2022/01/25 03:39:18;;;;;;;50.73;18.40;;;-0.70;99.90;;;;;;5050381;28;20036;-77
2022/01/25 03:41:44;;;;;;;38.27;15.33;;;-0.70;99.90;;;;;;5050242;28;20037;-77
2022/01/25 03:44:09;;;;;;;43.63;15.30;;;-0.60;99.90;;;;;;5050202;28;20441;-77
2022/01/25 03:46:41;;;;;;;42.40;15.57;;;-0.60;99.90;;;;;;5050344;28;20032;-78
2022/01/25 03:51:52;;;;;;;60.67;17.00;;;-0.70;99.90;;;;;;5050347;28;20082;-77
2022/01/25 03:54:18;;;;;;;42.97;17.43;;;-0.70;99.90;;;;;;5050035;28;20508;-77
2022/01/25 03:56:44;;;;;;;50.27;17.23;;;-0.70;99.90;;;;;;5050312;28;20106;-77
2022/01/25 03:59:10;;;;;;;46.40;15.97;;;-0.70;99.90;;;;;;5050048;28;20064;-76
2022/01/25 04:01:36;;;;;;;52.77;17.77;;;-0.80;99.90;;;;;;5050102;28;20037;-77
2022/01/25 04:04:08;;;;;;;33.77;14.83;;;-0.80;99.90;;;;;;5050395;28;20128;-78
2022/01/25 04:06:35;;;;;;;35.63;14.60;;;-0.80;99.90;;;;;;5050180;28;20136;-77
2022/01/25 04:09:05;;;;;;;34.67;14.10;;;-0.80;99.90;;;;;;5049649;28;20021;-77
2022/01/25 04:11:31;;;;;;;33.50;14.23;;;-0.80;99.90;;;;;;5049880;28;20033;-77
2022/01/25 04:13:58;;;;;;;48.07;15.27;;;-0.80;99.90;;;;;;5049788;28;20074;-77
2022/01/25 04:16:30;;;;;;;43.07;16.17;;;-0.80;99.90;;;;;;5050192;28;20559;-77
2022/01/25 04:21:44;;;;;;;56.10;17.27;;;-0.70;99.90;;;;;;5050102;28;20079;-77
2022/01/25 04:26:56;;;;;;;43.63;15.83;;;-0.80;99.90;;;;;;5049905;28;19916;-78
2022/01/25 04:29:23;;;;;;;57.53;16.20;;;-0.80;99.90;;;;;;5049576;28;20028;-78
2022/01/25 04:31:48;;;;;;;46.13;16.00;;;-0.80;99.90;;;;;;5049781;28;20033;-77
2022/01/25 04:34:40;;;;;;;46.60;16.37;;;-0.80;99.90;;;;;;5049903;28;20382;-77
2022/01/25 04:48:53;;;;;;;42.25;15.30;;;-0.80;99.90;;;;;;5049853;28;20032;-77
2022/01/25 04:56:57;;;;;;;48.20;16.73;;;-0.80;99.90;;;;;;5040406;28;20095;-77
2022/01/25 04:59:43;;;;;;;48.93;16.93;;;-0.80;99.90;;;;;;5049338;28;20060;-77
2022/01/25 05:02:17;;;;;;;45.00;17.03;;;-0.80;99.90;;;;;;5049812;28;20029;-77
2022/01/25 05:04:49;;;;;;;56.50;17.63;;;-0.80;99.90;;;;;;5049137;28;20034;-77
2022/01/25 05:07:27;;;;;;;66.67;17.97;;;-0.70;99.90;;;;;;5049355;28;20043;-77
2022/01/25 05:09:54;;;;;;;50.37;17.23;;;-0.70;99.90;;;;;;5048932;28;20351;-77
2022/01/25 05:12:36;;;;;;;55.97;17.27;;;-0.70;99.90;;;;;;5049574;28;20037;-77
2022/01/25 05:15:19;;;;;;;53.70;18.37;;;-0.70;99.90;;;;;;5049365;28;20021;-77
2022/01/25 05:17:56;;;;;;;49.07;16.43;;;-0.80;99.90;;;;;;5031544;28;20117;-77
2022/01/25 05:23:06;;;;;;;51.37;18.17;;;-0.70;99.90;;;;;;5043493;28;20104;-77
2022/01/25 05:25:32;;;;;;;53.07;18.53;;;-0.70;99.90;;;;;;5052068;28;20794;-77
2022/01/25 05:27:57;;;;;;;52.47;19.37;;;-0.70;99.90;;;;;;5039541;28;20381;-77
2022/01/25 05:30:23;;;;;;;58.40;19.40;;;-0.70;99.90;;;;;;5041460;28;21184;-77
2022/01/25 05:32:48;;;;;;;55.40;18.33;;;-0.80;99.90;;;;;;5046738;28;20496;-78
2022/01/25 05:35:14;;;;;;;57.77;18.80;;;-0.80;99.90;;;;;;5049228;28;20075;-78
2022/01/25 05:37:42;;;;;;;52.63;17.97;;;-0.70;99.90;;;;;;5046900;28;20041;-78
2022/01/25 05:40:14;;;;;;;57.23;18.13;;;-0.70;99.90;;;;;;5033138;28;20032;-78
2022/01/25 05:47:44;;;;;;;54.83;17.87;;;-0.70;99.90;;;;;;5035056;28;20040;-79
2022/01/25 05:50:12;;;;;;;67.83;18.77;;;-0.80;99.90;;;;;;5051184;28;20021;-78
2022/01/25 05:52:38;;;;;;;49.30;18.23;;;-0.80;99.90;;;;;;5039943;28;20029;-76
2022/01/25 05:55:04;;;;;;;55.43;19.07;;;-0.80;99.90;;;;;;5035486;28;20022;-76
2022/01/25 05:57:30;;;;;;;50.20;18.20;;;-0.80;99.90;;;;;;5038821;28;20035;-76
2022/01/25 05:59:56;;;;;;;54.90;19.77;;;-0.70;99.90;;;;;;5055068;28;20116;-77
2022/01/25 06:02:23;;;;;;;48.97;19.27;;;-0.70;99.90;;;;;;5054982;28;20036;-72
2022/01/25 06:04:50;;;;;;;44.90;19.43;;;-0.80;99.90;;;;;;5055477;28;20021;-73
2022/01/25 06:07:16;;;;;;;47.53;18.20;;;-0.70;99.90;;;;;;5054849;28;20462;-72
2022/01/25 06:09:41;;;;;;;53.07;18.87;;;-0.70;99.90;;;;;;5054886;28;20032;-72
2022/01/25 06:12:09;;;;;;;47.80;19.43;;;-0.70;99.90;;;;;;5054917;28;20021;-72
2022/01/25 06:14:34;;;;;;;51.03;19.97;;;-0.70;99.90;;;;;;5044336;28;20088;-78
2022/01/25 06:17:00;;;;;;;57.53;19.77;;;-0.70;99.90;;;;;;5042456;28;20041;-76
2022/01/25 06:19:26;;;;;;;46.50;18.27;;;-0.70;99.90;;;;;;5050612;28;20539;-77
2022/01/25 06:21:51;;;;;;;39.97;18.57;;;-0.70;99.90;;;;;;5049541;28;20021;-76
2022/01/25 06:24:17;;;;;;;39.30;17.63;;;-0.70;99.90;;;;;;5050288;28;20036;-76
2022/01/25 06:26:42;;;;;;;54.83;18.83;;;-0.80;99.90;;;;;;5051369;28;20021;-77
2022/01/25 06:29:08;;;;;;;44.97;19.37;;;-0.80;99.90;;;;;;5050424;28;20390;-77
2022/01/25 06:31:33;;;;;;;46.30;20.33;;;-0.90;99.90;;;;;;5031883;28;20094;-77
2022/01/25 06:33:59;;;;;;;43.33;18.10;;;-0.90;99.90;;;;;;5031125;28;20053;-76
2022/01/25 06:36:25;;;;;;;44.67;18.33;;;-0.90;99.90;;;;;;5031770;28;20033;-77
2022/01/25 06:38:51;;;;;;;40.77;18.03;;;-0.90;99.90;;;;;;5031257;28;20032;-77
2022/01/25 06:41:17;;;;;;;53.47;18.97;;;-0.90;99.90;;;;;;5050804;28;20025;-77
2022/01/25 06:43:43;;;;;;;49.00;18.23;;;-1.00;99.90;;;;;;5049719;28;20132;-77
2022/01/25 06:46:09;;;;;;;58.57;20.37;;;-1.00;99.90;;;;;;5050854;28;20131;-76
2022/01/25 06:48:34;;;;;;;43.87;19.10;;;-1.00;99.90;;;;;;5046470;28;20458;-77
2022/01/25 06:51:01;;;;;;;51.50;19.63;;;-1.10;99.90;;;;;;5048977;28;20037;-77
2022/01/25 06:53:27;;;;;;;52.90;20.50;;;-1.10;99.90;;;;;;5047624;28;20048;-77
2022/01/25 06:55:53;;;;;;;43.63;19.60;;;-1.10;99.90;;;;;;5046134;28;20746;-77
2022/01/25 06:58:19;;;;;;;50.83;20.10;;;-1.00;99.90;;;;;;5036501;28;20030;-78
2022/01/25 07:00:45;;;;;;;58.93;18.60;;;-1.00;99.90;;;;;;5028016;28;20029;-77
2022/01/25 07:03:10;;;;;;;48.40;19.30;;;-1.00;99.90;;;;;;5043396;28;20043;-77
2022/01/25 07:05:36;;;;;;;44.50;21.17;;;-1.10;99.90;;;;;;5047846;28;20108;-77
2022/01/25 07:08:03;;;;;;;52.73;22.33;;;-1.10;99.90;;;;;;5046911;28;20514;-77
2022/01/25 07:10:28;;;;;;;47.10;22.27;;;-1.10;99.90;;;;;;5046753;28;20067;-77
2022/01/25 07:12:54;;;;;;;54.40;23.13;;;-1.20;99.90;;;;;;5047742;28;20036;-78
2022/01/25 07:15:20;;;;;;;47.07;21.70;;;-1.20;99.90;;;;;;5047617;28;20064;-78
2022/01/25 07:17:45;;;;;;;47.03;21.80;;;-1.20;99.90;;;;;;5047633;28;20117;-78
2022/01/25 07:20:12;;;;;;;40.17;20.47;;;-1.10;99.90;;;;;;5042431;28;20049;-78
2022/01/25 07:22:40;;;;;;;81.37;22.37;;;-1.10;99.90;;;;;;5043747;28;20679;-79
2022/01/25 07:25:07;;;;;;;62.90;19.90;;;-1.20;99.90;;;;;;5043489;28;20127;-79
2022/01/25 07:27:33;;;;;;;46.23;20.90;;;-1.20;99.90;;;;;;5045255;28;20033;-79
2022/01/25 07:29:59;;;;;;;41.97;19.50;;;-1.20;99.90;;;;;;5045071;28;20029;-77
2022/01/25 07:32:24;;;;;;;44.30;21.10;;;-1.20;99.90;;;;;;5041901;28;20484;-79
2022/01/25 07:34:50;;;;;;;44.63;22.50;;;-1.30;99.90;;;;;;5044381;28;20091;-79
2022/01/25 07:37:16;;;;;;;47.33;22.40;;;-1.30;99.90;;;;;;5046176;28;20032;-79
2022/01/25 07:39:45;;;;;;;54.53;22.77;;;-1.30;99.90;;;;;;5045382;28;20116;-78
2022/01/25 07:42:11;;;;;;;46.97;21.97;;;-1.30;99.90;;;;;;5045453;28;20039;-77
2022/01/25 07:44:39;;;;;;;43.13;21.80;;;-1.30;99.90;;;;;;5043766;28;20049;-77
2022/01/25 07:47:05;;;;;;;41.43;20.90;;;-1.30;99.90;;;;;;5044779;28;20473;-77
2022/01/25 07:49:31;;;;;;;37.30;19.63;;;-1.20;99.90;;;;;;5042858;28;20039;-78
2022/01/25 07:51:57;;;;;;;38.93;20.47;;;-1.20;99.90;;;;;;5045589;28;20033;-78
2022/01/25 07:54:23;;;;;;;39.77;21.03;;;-1.20;99.90;;;;;;5044034;28;20037;-78
2022/01/25 07:56:49;;;;;;;37.83;20.30;;;-1.20;99.90;;;;;;5045024;28;20371;-78
2022/01/25 07:59:15;;;;;;;42.03;21.70;;;-1.20;99.90;;;;;;5043335;28;20033;-78
2022/01/25 08:01:41;;;;;;;41.60;20.47;;;-1.20;99.90;;;;;;5045193;28;20036;-78
2022/01/25 08:04:11;;;;;;;42.10;22.40;;;-1.20;99.90;;;;;;5042939;28;20750;-77
2022/01/25 08:06:38;;;;;;;40.43;21.27;;;-1.20;99.90;;;;;;5045492;28;20474;-77
2022/01/25 08:09:05;;;;;;;43.63;22.30;;;-1.20;99.90;;;;;;5043669;28;20036;-78
2022/01/25 08:11:32;;;;;;;46.77;24.23;;;-1.20;99.90;;;;;;5044145;28;20029;-78
2022/01/25 08:14:12;;;;;;;47.20;24.63;;;-1.20;99.90;;;;;;5044198;28;20039;-78
2022/01/25 08:16:39;;;;;;;47.77;23.30;;;-1.20;99.90;;;;;;5043384;28;20108;-77
2022/01/25 08:19:05;;;;;;;48.37;24.07;;;-1.10;99.90;;;;;;5043860;28;20473;-78
2022/01/25 08:21:30;;;;;;;47.47;25.30;;;-1.10;99.90;;;;;;5044153;28;20037;-78
2022/01/25 08:23:56;;;;;;;48.47;24.83;;;-1.10;99.90;;;;;;5044246;28;20082;-78
2022/01/25 08:26:21;;;;;;;48.20;24.37;;;-1.00;99.90;;;;;;5043520;28;20103;-78
2022/01/25 08:28:47;;;;;;;45.67;24.77;;;-1.00;99.90;;;;;;5043101;28;20039;-78
2022/01/25 08:31:13;;;;;;;45.83;24.27;;;-1.00;99.90;;;;;;5043938;28;20056;-78
2022/01/25 08:33:39;;;;;;;46.63;25.97;;;-0.90;99.90;;;;;;5045550;28;20039;-78
2022/01/25 08:36:05;;;;;;;48.50;25.93;;;-0.90;99.90;;;;;;5045401;28;20116;-78
2022/01/25 08:38:31;;;;;;;46.07;25.47;;;-0.90;99.90;;;;;;5044868;28;20456;-78
2022/01/25 08:40:56;;;;;;;46.30;24.97;;;-0.90;99.90;;;;;;5044269;28;20033;-78
2022/01/25 08:43:22;;;;;;;45.07;24.83;;;-0.80;99.90;;;;;;5044762;28;20104;-78
2022/01/25 08:45:48;;;;;;;43.50;25.07;;;-0.80;99.90;;;;;;5044630;28;20059;-79
2022/01/25 08:48:14;;;;;;;42.77;24.83;;;-0.80;99.90;;;;;;5037486;28;20474;-78
2022/01/25 08:50:39;;;;;;;42.27;23.30;;;-0.80;99.90;;;;;;5036293;28;20022;-78
2022/01/25 08:53:07;;;;;;;39.27;23.17;;;-0.90;99.90;;;;;;5033164;28;20105;-78
2022/01/25 08:55:33;;;;;;;37.57;22.10;;;-0.80;99.90;;;;;;5032445;28;20443;-77
2022/01/25 08:57:58;;;;;;;41.67;23.00;;;-0.80;99.90;;;;;;5034799;28;20033;-79
2022/01/25 09:00:24;;;;;;;39.47;22.67;;;-0.70;99.90;;;;;;5041364;28;20044;-78
2022/01/25 09:02:50;;;;;;;42.10;23.60;;;-0.70;99.90;;;;;;5048520;28;20116;-79
2022/01/25 09:05:15;;;;;;;42.40;25.17;;;-0.70;99.90;;;;;;5047746;28;20028;-78
2022/01/25 09:07:41;;;;;;;40.47;24.33;;;-0.70;99.90;;;;;;5048514;28;20047;-79
2022/01/25 09:10:08;;;;;;;39.03;22.73;;;-0.60;99.90;;;;;;5046779;28;20029;-79
2022/01/25 09:12:34;;;;;;;40.97;20.83;;;-0.60;99.90;;;;;;5047589;28;20037;-79
2022/01/25 09:15:00;;;;;;;35.57;21.73;;;-0.50;99.90;;;;;;5048033;28;20371;-76
2022/01/25 09:17:26;;;;;;;36.67;22.53;;;-0.50;99.90;;;;;;5047831;28;20947;-77
2022/01/25 09:19:52;;;;;;;37.03;22.27;;;-0.40;99.90;;;;;;5046724;28;20053;-77
2022/01/25 09:22:19;;;;;;;33.83;21.33;;;-0.50;99.90;;;;;;5049823;28;20061;-78
2022/01/25 09:24:45;;;;;;;34.67;21.30;;;-0.50;99.90;;;;;;5049227;28;20040;-78
2022/01/25 09:27:10;;;;;;;37.30;22.77;;;-0.50;99.90;;;;;;5049526;28;20395;-78
2022/01/25 09:29:36;;;;;;;35.43;21.50;;;-0.50;99.90;;;;;;5049362;28;20111;-78
2022/01/25 09:32:02;;;;;;;35.33;22.33;;;-0.40;99.90;;;;;;5049036;28;20112;-78
2022/01/25 09:34:28;;;;;;;36.43;21.93;;;-0.40;99.90;;;;;;5039673;28;20040;-78
2022/01/25 09:36:53;;;;;;;34.20;20.83;;;-0.50;99.90;;;;;;5043672;28;20029;-78
2022/01/25 09:39:21;;;;;;;33.83;21.97;;;-0.50;99.90;;;;;;5049187;28;20033;-79
2022/01/25 09:41:46;;;;;;;31.30;20.37;;;-0.50;99.90;;;;;;5045259;28;20733;-76
2022/01/25 09:44:12;;;;;;;30.70;19.57;;;-0.50;99.90;;;;;;5036917;28;20057;-76
2022/01/25 09:46:39;;;;;;;32.43;20.93;;;-0.40;99.90;;;;;;5049785;28;20032;-77
2022/01/25 09:49:05;;;;;;;32.90;18.60;;;-0.30;99.90;;;;;;5050506;28;20017;-77
2022/01/25 09:51:32;;;;;;;30.03;17.87;;;-0.40;99.90;;;;;;5051082;28;20029;-77
2022/01/25 09:53:58;;;;;;;29.83;18.10;;;-0.40;99.90;;;;;;5050273;28;20039;-77
2022/01/25 09:56:23;;;;;;;30.63;19.23;;;-0.30;99.90;;;;;;5048986;28;20129;-77
2022/01/25 09:58:51;;;;;;;29.23;19.13;;;-0.30;99.90;;;;;;5048956;28;20353;-77
2022/01/25 10:01:27;;;;;;;34.87;19.27;;;-0.30;99.90;;;;;;5049665;28;20033;-77
2022/01/25 10:03:53;;;;;;;30.77;19.07;;;-0.30;99.90;;;;;;5051275;28;20040;-77
2022/01/25 10:06:21;;;;;;;29.07;18.37;;;-0.20;99.90;;;;;;5038126;28;20033;-77
2022/01/25 10:08:51;;;;;;;30.23;19.40;;;-0.20;99.90;;;;;;5042429;28;20064;-77
2022/01/25 10:11:19;;;;;;;30.70;19.10;;;-0.20;99.90;;;;;;5040195;28;20029;-77
2022/01/25 10:13:48;;;;;;;29.30;19.20;;;-0.10;99.90;;;;;;5030454;28;20386;-77
2022/01/25 10:16:21;;;;;;;31.77;19.47;;;-0.10;99.90;;;;;;5034873;28;20708;-77
2022/01/25 10:18:52;;;;;;;29.23;18.50;;;0.00;99.90;;;;;;5052544;28;20033;-77
2022/01/25 10:21:25;;;;;;;29.23;18.43;;;0.10;99.90;;;;;;5059997;28;20029;-77
2022/01/25 10:24:05;;;;;;;30.87;19.73;;;0.20;99.90;;;;;;5058220;28;20041;-77
2022/01/25 10:26:48;;;;;;;29.00;17.60;;;0.20;99.90;;;;;;5062210;28;20029;-77
2022/01/25 10:29:17;;;;;;;28.67;18.97;;;0.30;99.90;;;;;;5039452;28;20044;-76
2022/01/25 10:31:46;;;;;;;25.33;16.30;;;0.40;99.90;;;;;;5041341;28;20028;-76
2022/01/25 10:34:14;;;;;;;24.33;15.97;;;0.50;99.90;;;;;;5045421;28;20346;-76
2022/01/25 10:36:46;;;;;;;25.30;16.90;;;0.60;99.90;;;;;;5037940;28;20028;-76
2022/01/25 10:39:33;;;;;;;23.83;15.87;;;0.60;99.90;;;;;;5034542;28;20033;-76
2022/01/25 10:42:09;;;;;;;26.00;17.97;;;0.60;99.90;;;;;;5033230;28;20032;-76
2022/01/25 10:45:09;;;;;;;27.37;16.93;;;0.80;99.90;;;;;;5034438;28;20167;-76
2022/01/25 10:47:49;;;;;;;25.80;17.17;;;1.10;99.90;;;;;;5055410;28;20542;-76
2022/01/25 10:50:35;;;;;;;25.30;17.00;;;1.30;99.90;;;;;;5051723;28;20036;-77
2022/01/25 10:53:08;;;;;;;25.23;15.87;;;1.50;99.90;;;;;;5046404;28;20032;-77
2022/01/25 10:55:42;;;;;;;24.73;16.87;;;1.80;99.90;;;;;;5034953;28;20040;-77
2022/01/25 10:58:08;;;;;;;25.07;17.27;;;1.70;99.90;;;;;;5052738;28;20059;-78
2022/01/25 11:00:38;;;;;;;22.77;15.47;;;1.70;99.90;;;;;;5054074;28;20275;-78
2022/01/25 11:03:05;;;;;;;23.87;16.70;;;1.70;99.90;;;;;;5043715;28;20021;-74
2022/01/25 11:05:33;;;;;;;23.63;15.63;;;1.80;99.90;;;;;;5033937;28;20104;-74
2022/01/25 11:08:10;;;;;;;23.00;15.83;;;1.80;99.90;;;;;;5032269;28;20036;-74
2022/01/25 11:10:38;;;;;;;23.90;16.13;;;1.80;99.90;;;;;;5032987;28;20023;-74
2022/01/25 11:13:11;;;;;;;23.97;15.60;;;1.80;99.90;;;;;;5033641;28;20014;-74
2022/01/25 11:15:36;;;;;;;23.27;16.50;;;1.90;99.90;;;;;;5033596;28;20060;-74
2022/01/25 11:18:05;;;;;;;21.93;15.97;;;1.90;99.90;;;;;;5033894;28;20358;-74
2022/01/25 11:20:30;;;;;;;22.70;15.40;;;2.00;99.90;;;;;;5033541;28;20025;-74
2022/01/25 11:22:57;;;;;;;24.93;16.07;;;2.20;99.90;;;;;;5033411;28;20363;-74
2022/01/25 11:25:23;;;;;;;22.97;15.83;;;2.20;99.90;;;;;;5033683;28;20061;-74
2022/01/25 11:27:52;;;;;;;22.30;13.73;;;2.30;99.90;;;;;;5033719;28;20135;-74
2022/01/25 11:30:20;;;;;;;22.03;14.70;;;2.30;99.90;;;;;;5034082;28;20425;-74
2022/01/25 11:32:48;;;;;;;23.23;14.17;;;2.40;99.90;;;;;;5031981;28;20021;-75
2022/01/25 11:35:19;;;;;;;22.13;14.00;;;2.50;99.90;;;;;;5033232;28;20025;-75
2022/01/25 11:37:47;;;;;;;19.63;12.90;;;2.60;99.90;;;;;;5033491;28;20025;-74
2022/01/25 11:40:23;;;;;;;20.30;13.10;;;2.80;99.90;;;;;;5033164;28;20049;-74
2022/01/25 11:42:51;;;;;;;23.27;13.73;;;2.90;99.90;;;;;;5033131;28;20025;-74
2022/01/25 11:45:24;;;;;;;20.73;14.40;;;2.90;99.90;;;;;;5048165;28;20049;-74
2022/01/25 11:47:51;;;;;;;23.30;14.53;;;3.00;99.90;;;;;;5031705;28;20027;-75
2022/01/25 11:50:18;;;;;;;20.30;14.37;;;3.00;99.90;;;;;;5033079;28;20132;-74
2022/01/25 11:52:49;;;;;;;21.77;15.50;;;3.00;99.90;;;;;;5033081;28;20454;-74
2022/01/25 11:55:30;;;;;;;23.93;15.93;;;3.20;99.90;;;;;;5033503;28;20394;-74
2022/01/25 11:58:04;;;;;;;24.20;16.03;;;3.50;99.90;;;;;;5032916;28;20032;-74
2022/01/25 12:00:46;;;;;;;23.95;15.13;;;3.60;99.90;;;;;;5032995;28;20108;-74
2022/01/25 12:03:25;;;;;;;22.13;15.90;;;3.60;99.90;;;;;;5033019;28;20025;-75
2022/01/25 12:06:29;;;;;;;24.93;16.67;;;3.60;99.90;;;;;;5032977;28;20035;-75
2022/01/25 12:09:31;;;;;;;19.47;14.33;;;3.80;99.90;;;;;;5031960;28;20147;-74
2022/01/25 12:12:00;;;;;;;20.50;14.37;;;4.40;99.90;;;;;;5032734;28;20014;-75
2022/01/25 12:14:32;;;;;;;26.43;15.93;;;4.40;99.90;;;;;;5032902;28;20347;-74
2022/01/25 12:17:03;;;;;;;20.37;15.43;;;4.40;99.90;;;;;;5031332;28;20026;-74
2022/01/25 12:19:48;;;;;;;21.13;14.80;;;4.30;99.90;;;;;;5032675;28;20030;-74
2022/01/25 12:22:22;;;;;;;20.37;14.63;;;4.20;99.90;;;;;;5032656;28;20100;-74
2022/01/25 12:25:01;;;;;;;21.35;15.20;;;4.20;99.90;;;;;;5031589;28;20386;-74
2022/01/25 12:27:35;;;;;;;18.37;14.37;;;4.20;99.90;;;;;;5032784;28;20479;-74
2022/01/25 12:30:12;;;;;;;19.90;14.47;;;4.20;99.90;;;;;;5032500;28;20144;-74
2022/01/25 12:33:01;;;;;;;20.03;14.43;;;4.40;99.90;;;;;;5036914;28;20504;-74
2022/01/25 12:35:34;;;;;;;19.57;14.03;;;4.40;99.90;;;;;;5035331;28;20018;-74
2022/01/25 12:38:07;;;;;;;20.90;14.00;;;4.70;99.90;;;;;;5036565;28;20029;-74
2022/01/25 12:40:36;;;;;;;20.10;13.87;;;4.80;99.90;;;;;;5036789;28;20318;-74
2022/01/25 12:43:26;;;;;;;22.23;15.13;;;5.60;99.90;;;;;;5036312;28;20045;-74
2022/01/25 12:45:56;;;;;;;22.97;15.10;;;5.40;99.90;;;;;;5036552;28;20118;-73
2022/01/25 12:48:27;;;;;;;26.37;16.63;;;5.60;99.90;;;;;;5037975;28;20112;-73
2022/01/25 12:50:55;;;;;;;21.67;14.83;;;5.40;99.90;;;;;;5056429;28;20033;-73
2022/01/25 12:53:28;;;;;;;22.00;14.40;;;5.60;99.90;;;;;;5056282;28;20025;-73
2022/01/25 12:55:58;;;;;;;20.13;14.37;;;5.60;99.90;;;;;;5056189;28;20013;-73
2022/01/25 12:58:27;;;;;;;20.57;14.50;;;5.60;99.90;;;;;;5056141;28;20080;-73
2022/01/25 13:00:54;;;;;;;19.23;14.23;;;5.90;99.90;;;;;;5055855;28;20359;-73
2022/01/25 13:03:27;;;;;;;21.70;14.87;;;5.90;99.90;;;;;;5055946;28;20031;-73
2022/01/25 13:05:57;;;;;;;19.50;13.63;;;6.10;99.90;;;;;;5056087;28;20049;-73
2022/01/25 13:08:34;;;;;;;18.37;13.27;;;6.50;99.90;;;;;;5055052;28;20351;-74
2022/01/25 13:11:19;;;;;;;16.77;12.80;;;6.50;99.90;;;;;;5055633;28;20017;-73
2022/01/25 13:14:01;;;;;;;20.13;14.03;;;6.20;99.90;;;;;;5054402;28;20017;-73
2022/01/25 13:16:52;;;;;;;19.17;13.27;;;5.90;99.90;;;;;;5055951;28;20270;-73
2022/01/25 13:19:36;;;;;;;21.77;12.57;;;6.00;99.90;;;;;;5053051;28;20037;-73
2022/01/25 13:22:11;;;;;;;18.40;13.00;;;5.90;99.90;;;;;;5056111;28;20025;-72
2022/01/25 13:24:46;;;;;;;17.27;13.35;;;5.60;99.90;;;;;;5055988;28;20119;-73
2022/01/25 13:27:15;;;;;;;22.52;12.57;;;5.40;99.90;;;;;;5055704;28;20025;-73
2022/01/25 13:32:39;;;;;;;16.80;12.43;;;5.60;99.90;;;;;;5055464;28;20488;-74
2022/01/25 13:35:17;;;;;;;16.83;13.20;;;5.80;99.90;;;;;;5055564;28;20041;-73
2022/01/25 13:37:44;;;;;;;18.70;12.87;;;5.80;99.90;;;;;;5055514;28;20087;-73
2022/01/25 13:40:15;;;;;;;19.03;13.50;;;5.50;99.90;;;;;;5055241;28;20413;-74
2022/01/25 13:43:07;;;;;;;18.07;13.07;;;5.40;99.90;;;;;;5054505;28;20031;-73
2022/01/25 13:45:44;;;;;;;18.97;12.87;;;5.30;99.90;;;;;;5054953;28;20067;-74
2022/01/25 13:48:19;;;;;;;21.43;14.10;;;5.30;99.90;;;;;;5055319;28;20125;-74
2022/01/25 13:50:45;;;;;;;22.30;14.05;;;5.20;99.90;;;;;;5055365;28;20512;-73
2022/01/25 13:53:11;;;;;;;20.20;14.10;;;5.20;99.90;;;;;;5054913;28;20043;-74
2022/01/25 13:55:37;;;;;;;20.70;15.00;;;5.30;99.90;;;;;;5055534;28;20493;-73
2022/01/25 13:58:28;;;;;;;19.37;13.87;;;5.30;99.90;;;;;;5055151;28;20025;-73
2022/01/25 14:00:55;;;;;;;22.83;14.23;;;5.70;99.90;;;;;;5053518;28;20424;-73
2022/01/25 14:03:27;;;;;;;23.30;15.33;;;5.70;99.90;;;;;;5053426;28;20029;-73
2022/01/25 14:05:53;;;;;;;20.90;14.37;;;5.60;99.90;;;;;;5053388;28;20123;-73
2022/01/25 14:08:34;;;;;;;23.80;15.70;;;5.30;99.90;;;;;;5054873;28;20330;-73
2022/01/25 14:11:02;;;;;;;22.93;14.93;;;5.60;99.90;;;;;;5055019;28;20083;-73
2022/01/25 14:24:35;;;;;;;32.70;21.10;;;5.10;99.90;;;;;;5054473;28;20031;-72
2022/01/25 14:27:18;;;;;;;33.20;21.07;;;4.90;99.90;;;;;;5054177;28;20028;-73
2022/01/25 14:29:44;;;;;;;35.23;22.50;;;4.50;99.90;;;;;;5054606;28;20028;-72
2022/01/25 14:32:10;;;;;;;33.60;21.83;;;4.40;99.90;;;;;;5054591;28;20453;-72